Time;durP1;ratioP1;P1;durP2;ratioP2;P2;SDS_P1;SDS_P2;PMS_P1;PMS_P2;Temp;Humidity;BMP_temperature;BMP_pressure;BME280_temperature;BME280_humidity;BME280_pressure;Samples;Min_cycle;Max_cycle;Signal;HPM_P1;HPM_P2
2022/05/09 00:00:25;;;;;;;10.88;5.53;;;;;;;;;;4136951;34;20164;-68
2022/05/09 00:32:35;;;;;;;9.45;5.47;;;;;;;;;;4765104;29;21311;-61
2022/05/09 00:35:01;;;;;;;11.40;5.22;;;;;;;;;;4120158;34;20334;-61
2022/05/09 00:37:27;;;;;;;12.18;5.18;;;;;;;;;;4134120;34;20104;-68
2022/05/09 00:39:53;;;;;;;9.15;5.30;;;;;;;;;;4133807;34;20102;-68
2022/05/09 00:42:20;;;;;;;13.45;6.07;;;;;;;;;;4134048;34;20135;-67
2022/05/09 00:44:47;;;;;;;14.48;5.15;;;;;;;;;;4133357;34;20103;-68
2022/05/09 00:47:13;;;;;;;13.45;5.32;;;;;;;;;;4122821;34;20107;-68
2022/05/09 00:49:55;;;;;;;11.65;4.93;;;;;;;;;;4133998;34;20527;-68
2022/05/09 00:52:27;;;;;;;11.00;4.93;;;;;;;;;;4133762;34;20198;-61
2022/05/09 00:55:16;;;;;;;10.75;5.55;;;;;;;;;;4133811;34;20120;-62
2022/05/09 00:57:53;;;;;;;12.10;5.43;;;;;;;;;;4133964;34;20246;-62
2022/05/09 01:00:21;;;;;;;7.12;5.05;;;;;;;;;;4133621;34;20161;-62
2022/05/09 01:02:50;;;;;;;10.20;5.37;;;;;;;;;;4133758;34;20199;-62
2022/05/09 01:05:16;;;;;;;10.55;5.40;;;;;;;;;;4131091;34;20097;-62
2022/05/09 01:07:43;;;;;;;9.23;5.32;;;;;;;;;;4150822;34;20098;-62
2022/05/09 01:10:14;;;;;;;11.23;5.80;;;;;;;;;;4162952;34;20084;-62
2022/05/09 01:12:42;;;;;;;12.30;4.97;;;;;;;;;;4150734;34;20432;-62
2022/05/09 01:15:12;;;;;;;10.65;5.43;;;;;;;;;;4162979;34;20514;-67
2022/05/09 01:17:42;;;;;;;8.75;5.00;;;;;;;;;;4162947;34;20130;-68
2022/05/09 01:20:09;;;;;;;17.85;5.93;;;;;;;;;;4162897;34;20110;-68
2022/05/09 01:22:37;;;;;;;11.30;5.57;;;;;;;;;;4163056;34;20142;-68
2022/05/09 01:25:07;;;;;;;13.57;5.35;;;;;;;;;;4162880;34;20098;-68
2022/05/09 01:27:35;;;;;;;12.18;5.40;;;;;;;;;;4162864;34;20127;-68
2022/05/09 01:30:19;;;;;;;14.85;5.43;;;;;;;;;;4150197;34;20300;-68
2022/05/09 01:32:50;;;;;;;11.38;5.72;;;;;;;;;;4151369;34;20107;-68
2022/05/09 01:35:45;;;;;;;15.15;5.62;;;;;;;;;;4164849;34;20179;-68
2022/05/09 01:38:24;;;;;;;10.60;5.20;;;;;;;;;;4148910;34;20618;-68
2022/05/09 01:40:50;;;;;;;11.98;6.05;;;;;;;;;;4138978;34;20206;-69
2022/05/09 01:43:39;;;;;;;9.75;6.00;;;;;;;;;;4151469;34;20131;-68
2022/05/09 01:46:09;;;;;;;9.02;5.50;;;;;;;;;;4151241;34;20195;-67
2022/05/09 01:51:20;;;;;;;10.57;5.82;;;;;;;;;;4151159;34;20115;-68
2022/05/09 01:53:52;;;;;;;10.63;5.43;;;;;;;;;;4151211;34;20122;-68
2022/05/09 01:56:20;;;;;;;11.55;5.90;;;;;;;;;;4151215;34;20310;-67
2022/05/09 01:58:46;;;;;;;16.10;7.05;;;;;;;;;;4151212;34;20091;-68
2022/05/09 02:01:12;;;;;;;13.48;5.75;;;;;;;;;;4151108;34;20123;-68
2022/05/09 02:03:38;;;;;;;12.70;5.60;;;;;;;;;;4138785;34;20110;-68
2022/05/09 02:06:08;;;;;;;12.07;5.75;;;;;;;;;;4151018;34;20098;-68
2022/05/09 02:08:34;;;;;;;10.20;5.72;;;;;;;;;;4151283;34;20222;-68
2022/05/09 02:11:00;;;;;;;13.38;5.25;;;;;;;;;;4159557;34;20206;-67
2022/05/09 02:13:26;;;;;;;14.95;5.22;;;;;;;;;;4152133;34;20138;-67
2022/05/09 02:15:51;;;;;;;8.38;5.32;;;;;;;;;;4164558;34;20552;-67
2022/05/09 02:18:18;;;;;;;14.48;5.22;;;;;;;;;;4164747;34;20218;-67
2022/05/09 02:20:44;;;;;;;8.15;6.00;;;;;;;;;;4164512;34;20115;-67
2022/05/09 02:23:10;;;;;;;19.65;8.93;;;;;;;;;;4164657;34;20115;-68
2022/05/09 02:25:36;;;;;;;18.65;7.30;;;;;;;;;;4164526;34;20190;-68
2022/05/09 02:28:06;;;;;;;19.08;7.18;;;;;;;;;;4164526;34;20139;-68
2022/05/09 02:30:32;;;;;;;13.57;7.15;;;;;;;;;;4164502;34;20110;-70
2022/05/09 02:32:58;;;;;;;17.83;6.65;;;;;;;;;;4164384;34;20147;-69
2022/05/09 02:35:24;;;;;;;13.73;6.70;;;;;;;;;;4151697;34;20196;-67
2022/05/09 02:37:52;;;;;;;14.52;6.65;;;;;;;;;;4151871;34;20531;-67
2022/05/09 02:40:18;;;;;;;14.48;6.62;;;;;;;;;;4151846;34;20147;-66
2022/05/09 02:42:44;;;;;;;11.68;6.68;;;;;;;;;;4164176;34;20098;-67
2022/05/09 02:45:11;;;;;;;13.70;6.50;;;;;;;;;;4164302;34;20207;-69
2022/05/09 02:47:40;;;;;;;12.25;5.55;;;;;;;;;;4151832;34;20111;-69
2022/05/09 02:50:06;;;;;;;11.85;5.78;;;;;;;;;;4164252;34;20204;-69
2022/05/09 02:52:32;;;;;;;13.20;7.32;;;;;;;;;;4164159;34;20162;-68
2022/05/09 02:54:58;;;;;;;13.43;6.60;;;;;;;;;;4164051;34;20630;-69
2022/05/09 02:57:24;;;;;;;12.43;6.53;;;;;;;;;;4164398;34;20218;-66
2022/05/09 02:59:50;;;;;;;12.63;5.43;;;;;;;;;;4164322;34;20121;-66
2022/05/09 03:02:16;;;;;;;13.40;5.95;;;;;;;;;;4164602;34;20103;-67
2022/05/09 03:04:42;;;;;;;12.68;6.32;;;;;;;;;;4164463;34;20203;-67
2022/05/09 03:07:11;;;;;;;10.80;6.50;;;;;;;;;;4151652;34;20107;-68
2022/05/09 03:09:39;;;;;;;14.87;6.25;;;;;;;;;;4164047;34;20114;-67
2022/05/09 03:12:05;;;;;;;19.62;6.32;;;;;;;;;;4164056;34;20227;-67
2022/05/09 03:14:32;;;;;;;24.27;6.32;;;;;;;;;;4163994;34;20211;-66
2022/05/09 03:16:58;;;;;;;16.83;6.40;;;;;;;;;;4164020;34;20126;-69
2022/05/09 03:19:25;;;;;;;17.92;7.07;;;;;;;;;;4164026;34;20137;-70
2022/05/09 03:21:54;;;;;;;16.67;5.35;;;;;;;;;;4163962;34;20226;-71
2022/05/09 03:24:20;;;;;;;14.77;5.00;;;;;;;;;;4163983;34;20099;-70
2022/05/09 03:26:47;;;;;;;16.98;4.45;;;;;;;;;;4163975;34;20318;-70
2022/05/09 03:29:14;;;;;;;10.38;5.10;;;;;;;;;;4164253;34;20110;-70
2022/05/09 03:31:40;;;;;;;11.82;5.37;;;;;;;;;;4163923;34;20138;-70
2022/05/09 03:34:06;;;;;;;6.05;4.30;;;;;;;;;;4163645;34;20115;-70
2022/05/09 03:36:33;;;;;;;7.78;4.12;;;;;;;;;;4163834;34;20110;-70
2022/05/09 03:38:59;;;;;;;6.07;3.72;;;;;;;;;;4163925;34;20194;-70
2022/05/09 03:41:25;;;;;;;6.90;4.18;;;;;;;;;;4163768;34;20479;-69
2022/05/09 03:43:51;;;;;;;6.22;3.70;;;;;;;;;;4151089;34;20122;-69
2022/05/09 03:46:17;;;;;;;6.28;4.05;;;;;;;;;;4163758;34;20118;-70
2022/05/09 03:48:44;;;;;;;5.97;3.95;;;;;;;;;;4151073;34;20479;-65
2022/05/09 03:51:10;;;;;;;7.12;4.57;;;;;;;;;;4151444;34;20114;-71
2022/05/09 03:53:36;;;;;;;10.27;4.12;;;;;;;;;;4151122;34;20127;-70
2022/05/09 03:56:03;;;;;;;13.13;4.45;;;;;;;;;;4150547;34;20194;-71
2022/05/09 03:58:29;;;;;;;11.50;4.70;;;;;;;;;;4163946;34;20118;-71
2022/05/09 04:00:55;;;;;;;10.55;6.07;;;;;;;;;;4163562;34;20436;-69
2022/05/09 04:03:21;;;;;;;12.45;7.00;;;;;;;;;;4151382;34;20111;-71
2022/05/09 04:05:47;;;;;;;20.77;8.15;;;;;;;;;;4163835;34;20126;-71
2022/05/09 04:08:20;;;;;;;12.55;8.10;;;;;;;;;;4163576;34;20193;-69
2022/05/09 04:10:47;;;;;;;15.85;7.32;;;;;;;;;;4151429;34;20103;-71
2022/05/09 04:13:14;;;;;;;13.88;7.50;;;;;;;;;;4163497;34;20561;-69
2022/05/09 04:18:43;;;;;;;12.43;6.62;;;;;;;;;;4163561;34;20177;-71
2022/05/09 04:21:11;;;;;;;9.35;6.72;;;;;;;;;;4151106;34;20439;-67
2022/05/09 04:23:38;;;;;;;13.00;6.68;;;;;;;;;;4163283;34;20110;-67
2022/05/09 04:26:05;;;;;;;8.48;5.75;;;;;;;;;;4162962;34;20797;-67
2022/05/09 04:28:31;;;;;;;14.05;6.12;;;;;;;;;;4163701;34;20138;-66
2022/05/09 04:30:59;;;;;;;18.23;6.82;;;;;;;;;;4163456;34;20130;-67
2022/05/09 04:33:25;;;;;;;14.02;6.47;;;;;;;;;;4163212;34;20199;-68
2022/05/09 04:35:51;;;;;;;11.38;6.72;;;;;;;;;;4163162;34;20130;-68
2022/05/09 04:38:24;;;;;;;16.80;7.55;;;;;;;;;;4163560;34;20161;-67
2022/05/09 04:40:56;;;;;;;10.07;5.53;;;;;;;;;;4163313;34;20117;-68
2022/05/09 04:43:24;;;;;;;10.43;5.45;;;;;;;;;;4163347;34;20130;-66
2022/05/09 04:45:51;;;;;;;16.50;5.12;;;;;;;;;;4163461;34;20123;-68
2022/05/09 04:48:19;;;;;;;9.32;4.37;;;;;;;;;;4163385;34;20118;-69
2022/05/09 04:50:45;;;;;;;7.85;3.35;;;;;;;;;;4163133;34;20109;-66
2022/05/09 04:53:11;;;;;;;8.70;5.10;;;;;;;;;;4163297;34;20102;-68
2022/05/09 04:55:37;;;;;;;9.77;3.90;;;;;;;;;;4163233;34;20119;-69
2022/05/09 04:58:04;;;;;;;10.23;2.85;;;;;;;;;;4163229;34;20447;-68
2022/05/09 05:00:30;;;;;;;8.88;2.95;;;;;;;;;;4163511;34;20095;-68
2022/05/09 05:02:57;;;;;;;7.10;3.00;;;;;;;;;;4163251;34;20125;-67
2022/05/09 05:05:24;;;;;;;11.68;2.92;;;;;;;;;;4163075;34;20130;-67
2022/05/09 05:07:51;;;;;;;8.90;2.50;;;;;;;;;;4163079;34;20520;-68
2022/05/09 05:10:18;;;;;;;6.22;2.90;;;;;;;;;;4139240;34;20110;-67
2022/05/09 05:12:44;;;;;;;13.13;3.00;;;;;;;;;;4163072;34;20123;-67
2022/05/09 05:15:11;;;;;;;8.52;2.72;;;;;;;;;;4163033;34;20468;-67
2022/05/09 05:17:38;;;;;;;5.68;3.10;;;;;;;;;;4162980;34;20125;-67
2022/05/09 05:20:12;;;;;;;6.90;2.40;;;;;;;;;;4163032;34;20130;-68
2022/05/09 05:22:40;;;;;;;5.15;2.75;;;;;;;;;;4162877;34;20103;-67
2022/05/09 05:25:07;;;;;;;6.72;2.15;;;;;;;;;;4162996;34;20117;-67
2022/05/09 05:27:33;;;;;;;6.07;2.17;;;;;;;;;;4163574;34;20100;-65
2022/05/09 05:30:00;;;;;;;5.65;2.70;;;;;;;;;;4163159;34;20098;-66
2022/05/09 05:32:28;;;;;;;5.28;2.47;;;;;;;;;;4163276;34;20119;-66
2022/05/09 05:34:54;;;;;;;9.50;2.40;;;;;;;;;;4163093;34;20203;-65
2022/05/09 05:37:21;;;;;;;3.35;2.22;;;;;;;;;;4163740;34;20111;-73
2022/05/09 05:39:47;;;;;;;4.40;2.42;;;;;;;;;;4163804;34;20126;-68
2022/05/09 05:42:16;;;;;;;5.85;2.17;;;;;;;;;;4163271;34;20129;-67
2022/05/09 05:44:43;;;;;;;5.53;2.25;;;;;;;;;;4139291;34;20620;-69
2022/05/09 05:47:10;;;;;;;5.80;2.22;;;;;;;;;;4163028;34;20135;-66
2022/05/09 05:49:37;;;;;;;2.75;2.10;;;;;;;;;;4162926;34;20103;-68
2022/05/09 05:52:04;;;;;;;4.72;1.80;;;;;;;;;;4150182;34;20482;-67
2022/05/09 05:54:31;;;;;;;5.87;2.20;;;;;;;;;;4162633;34;20110;-69
2022/05/09 05:56:58;;;;;;;2.80;1.92;;;;;;;;;;4162622;34;20115;-68
2022/05/09 05:59:25;;;;;;;2.83;2.22;;;;;;;;;;4162656;34;20130;-69
2022/05/09 06:01:52;;;;;;;10.80;2.50;;;;;;;;;;4150287;34;20131;-69
2022/05/09 06:04:19;;;;;;;3.03;2.03;;;;;;;;;;4162519;34;20506;-68
2022/05/09 06:06:46;;;;;;;5.70;1.95;;;;;;;;;;4162416;34;20487;-67
2022/05/09 06:09:12;;;;;;;3.22;2.45;;;;;;;;;;4162492;34;20097;-68
2022/05/09 06:11:40;;;;;;;4.97;2.30;;;;;;;;;;4162582;34;20102;-71
2022/05/09 06:14:07;;;;;;;4.57;2.10;;;;;;;;;;4162406;34;20104;-72
2022/05/09 06:16:34;;;;;;;8.93;2.67;;;;;;;;;;4149905;34;20540;-71
2022/05/09 06:19:01;;;;;;;7.65;2.15;;;;;;;;;;4163998;34;20209;-69
2022/05/09 06:21:27;;;;;;;8.52;3.30;;;;;;;;;;4164538;34;20103;-68
2022/05/09 06:23:53;;;;;;;10.63;3.37;;;;;;;;;;4162524;34;20091;-69
2022/05/09 06:26:22;;;;;;;6.20;2.65;;;;;;;;;;4151943;34;20091;-69
2022/05/09 06:28:48;;;;;;;5.82;2.67;;;;;;;;;;4164164;34;20130;-70
2022/05/09 06:31:14;;;;;;;7.72;2.20;;;;;;;;;;4164524;34;20130;-66
2022/05/09 06:33:40;;;;;;;6.97;2.12;;;;;;;;;;4163545;34;20503;-66
2022/05/09 06:36:06;;;;;;;12.07;2.40;;;;;;;;;;4163929;34;20095;-64
2022/05/09 06:38:33;;;;;;;5.72;1.98;;;;;;;;;;4158481;34;20539;-66
2022/05/09 06:41:01;;;;;;;4.60;1.87;;;;;;;;;;4162053;34;20119;-68
2022/05/09 06:43:29;;;;;;;1.50;1.40;;;;;;;;;;4160649;34;20223;-65
2022/05/09 06:45:56;;;;;;;5.37;1.92;;;;;;;;;;4152315;34;20187;-64
2022/05/09 06:48:22;;;;;;;8.73;1.98;;;;;;;;;;4163819;34;20199;-66
2022/05/09 06:50:49;;;;;;;4.18;2.53;;;;;;;;;;4159379;34;20124;-64
2022/05/09 06:53:15;;;;;;;8.55;2.05;;;;;;;;;;4137715;34;20116;-64
2022/05/09 06:55:41;;;;;;;4.25;1.95;;;;;;;;;;4150782;34;20103;-64
2022/05/09 06:58:14;;;;;;;2.47;2.00;;;;;;;;;;4137771;34;20103;-66
2022/05/09 07:00:40;;;;;;;6.10;2.08;;;;;;;;;;4150604;34;20194;-64
2022/05/09 07:03:06;;;;;;;3.90;2.03;;;;;;;;;;4163995;34;20178;-64
2022/05/09 07:05:32;;;;;;;2.70;2.10;;;;;;;;;;4164396;34;20171;-66
2022/05/09 07:07:58;;;;;;;1.87;1.60;;;;;;;;;;4163903;34;20110;-65
2022/05/09 07:10:27;;;;;;;2.15;1.90;;;;;;;;;;4151851;34;20460;-65
2022/05/09 07:12:55;;;;;;;2.28;1.92;;;;;;;;;;4163782;34;20123;-65
2022/05/09 07:15:28;;;;;;;5.25;2.25;;;;;;;;;;4164142;34;20103;-65
2022/05/09 07:17:55;;;;;;;9.13;3.20;;;;;;;;;;4150580;34;20111;-65
2022/05/09 07:20:25;;;;;;;7.22;2.53;;;;;;;;;;4139693;34;20975;-65
2022/05/09 07:22:56;;;;;;;4.75;2.12;;;;;;;;;;4154305;34;20122;-65
2022/05/09 07:25:23;;;;;;;2.83;2.10;;;;;;;;;;4159048;34;20609;-65
2022/05/09 07:27:50;;;;;;;4.22;2.47;;;;;;;;;;4153713;34;20110;-66
2022/05/09 07:30:18;;;;;;;5.95;2.30;;;;;;;;;;4163242;34;20118;-66
2022/05/09 07:32:44;;;;;;;2.25;2.05;;;;;;;;;;4151275;34;20123;-68
2022/05/09 07:35:12;;;;;;;4.45;1.92;;;;;;;;;;4163806;34;20114;-65
2022/05/09 07:37:40;;;;;;;5.35;1.90;;;;;;;;;;4163282;34;20125;-63
2022/05/09 07:40:08;;;;;;;2.70;1.80;;;;;;;;;;4163610;34;20110;-63
2022/05/09 07:42:34;;;;;;;9.07;2.28;;;;;;;;;;4163615;34;20534;-67
2022/05/09 07:45:02;;;;;;;5.53;2.72;;;;;;;;;;4151343;34;20092;-66
2022/05/09 07:47:28;;;;;;;5.10;2.30;;;;;;;;;;4137504;34;20207;-67
2022/05/09 07:49:54;;;;;;;5.85;2.20;;;;;;;;;;4149924;34;20539;-67
2022/05/09 07:52:20;;;;;;;3.47;1.92;;;;;;;;;;4150158;34;20123;-67
2022/05/09 07:54:46;;;;;;;4.50;2.53;;;;;;;;;;4149839;34;20539;-66
2022/05/09 07:57:13;;;;;;;4.53;2.25;;;;;;;;;;4149204;34;20114;-65
2022/05/09 07:59:39;;;;;;;5.20;2.25;;;;;;;;;;4149039;34;20097;-68
2022/05/09 08:02:06;;;;;;;2.53;2.17;;;;;;;;;;4150466;34;20110;-65
2022/05/09 08:04:32;;;;;;;3.22;2.35;;;;;;;;;;4150184;34;20470;-65
2022/05/09 08:06:58;;;;;;;3.67;2.40;;;;;;;;;;4150138;34;20134;-65
2022/05/09 08:09:24;;;;;;;8.10;2.45;;;;;;;;;;4150146;34;20561;-65
2022/05/09 08:11:50;;;;;;;9.10;3.20;;;;;;;;;;4149862;34;20500;-66
2022/05/09 08:14:17;;;;;;;1.10;1.10;;;;;;;;;;4149576;34;20104;-67
2022/05/09 08:16:43;;;;;;;8.55;2.90;;;;;;;;;;4150083;34;20102;-68
2022/05/09 08:19:11;;;;;;;5.78;2.90;;;;;;;;;;4161832;34;20137;-67
2022/05/09 08:21:38;;;;;;;7.37;3.15;;;;;;;;;;4163742;34;20103;-67
2022/05/09 08:24:05;;;;;;;13.80;2.83;;;;;;;;;;4150964;34;20197;-66
2022/05/09 08:26:32;;;;;;;2.97;2.53;;;;;;;;;;4163484;34;20170;-67
2022/05/09 08:28:58;;;;;;;6.55;2.87;;;;;;;;;;4151064;34;20517;-67
2022/05/09 08:31:25;;;;;;;5.55;2.17;;;;;;;;;;4163406;34;20118;-64
2022/05/09 08:33:52;;;;;;;9.98;2.87;;;;;;;;;;4163197;34;20139;-64
2022/05/09 08:39:05;;;;;;;3.33;2.37;;;;;;;;;;4163488;34;20103;-63
2022/05/09 08:41:57;;;;;;;5.95;2.40;;;;;;;;;;4162967;34;20123;-67
2022/05/09 08:44:44;;;;;;;3.65;2.30;;;;;;;;;;4163275;34;20118;-65
2022/05/09 08:47:29;;;;;;;9.68;3.28;;;;;;;;;;4150606;34;20215;-65
2022/05/09 08:50:09;;;;;;;;;;;;;;;;;;4151250;34;20118;-64
2022/05/09 08:52:41;;;;;;;4.00;2.40;;;;;;;;;;4150660;34;19971;-63
2022/05/09 08:55:07;;;;;;;7.82;2.80;;;;;;;;;;4150872;34;20210;-64
2022/05/09 08:57:47;;;;;;;10.10;4.25;;;;;;;;;;4150838;34;20114;-67
2022/05/09 09:00:16;;;;;;;3.55;2.30;;;;;;;;;;4163309;34;20107;-65
2022/05/09 09:02:58;;;;;;;2.65;1.73;;;;;;;;;;4163170;34;20199;-64
2022/05/09 09:05:26;;;;;;;5.22;2.03;;;;;;;;;;4150896;34;20145;-65
2022/05/09 09:08:07;;;;;;;3.62;2.47;;;;;;;;;;4162910;34;20549;-66
2022/05/09 09:10:55;;;;;;;16.25;2.62;;;;;;;;;;4163060;34;20121;-67
2022/05/09 09:13:24;;;;;;;10.05;4.95;;;;;;;;;;4162749;34;20123;-65
2022/05/09 09:15:56;;;;;;;8.98;2.95;;;;;;;;;;4162994;34;20123;-67
2022/05/09 09:19:04;;;;;;;3.62;2.92;;;;;;;;;;4163209;34;20130;-66
2022/05/09 09:21:57;;;;;;;6.82;3.45;;;;;;;;;;4154250;34;20115;-67
2022/05/09 09:24:49;;;;;;;6.37;2.87;;;;;;;;;;4162689;34;20599;-67
2022/05/09 09:27:27;;;;;;;8.25;3.00;;;;;;;;;;4150078;34;20107;-68
2022/05/09 09:29:58;;;;;;;3.75;2.55;;;;;;;;;;4162930;34;20223;-67
2022/05/09 09:32:25;;;;;;;12.10;3.28;;;;;;;;;;4150141;34;20178;-66
2022/05/09 09:34:56;;;;;;;3.80;2.37;;;;;;;;;;4162802;34;20115;-68
2022/05/09 09:38:05;;;;;;;4.55;2.42;;;;;;;;;;4162917;34;20122;-68
2022/05/09 09:40:32;;;;;;;2.75;2.03;;;;;;;;;;4125678;34;20132;-67
2022/05/09 09:42:58;;;;;;;4.07;2.33;;;;;;;;;;4162823;34;20207;-65
2022/05/09 09:45:46;;;;;;;3.80;2.10;;;;;;;;;;4162629;34;20238;-67
2022/05/09 09:48:13;;;;;;;4.37;2.35;;;;;;;;;;4162778;34;20444;-66
2022/05/09 09:50:59;;;;;;;3.95;2.00;;;;;;;;;;4150195;34;20557;-65
2022/05/09 09:53:57;;;;;;;8.70;2.87;;;;;;;;;;4163759;34;20110;-65
2022/05/09 09:56:22;;;;;;;7.37;2.35;;;;;;;;;;4164772;34;20510;-66
2022/05/09 09:58:50;;;;;;;4.55;2.40;;;;;;;;;;4164931;34;20107;-66
2022/05/09 10:01:34;;;;;;;2.55;2.00;;;;;;;;;;4164663;34;20141;-67
2022/05/09 10:04:27;;;;;;;3.75;2.00;;;;;;;;;;4164685;34;20103;-66
2022/05/09 10:07:05;;;;;;;2.17;1.80;;;;;;;;;;4160212;34;20479;-66
2022/05/09 10:09:41;;;;;;;3.28;2.35;;;;;;;;;;4164552;34;20530;-66
2022/05/09 10:12:20;;;;;;;2.80;2.17;;;;;;;;;;4152049;34;20114;-67
2022/05/09 10:14:46;;;;;;;2.83;2.00;;;;;;;;;;4164556;34;20127;-67
2022/05/09 10:17:18;;;;;;;4.60;2.70;;;;;;;;;;4164429;34;20126;-67
2022/05/09 10:19:44;;;;;;;4.87;2.30;;;;;;;;;;4164636;34;20542;-67
2022/05/09 10:25:23;;;;;;;8.75;2.17;;;;;;;;;;4164491;34;20134;-67
2022/05/09 10:28:12;;;;;;;3.92;2.53;;;;;;;;;;4152170;34;20115;-67
2022/05/09 10:30:41;;;;;;;7.25;5.22;;;;;;;;;;4164539;34;20125;-67
2022/05/09 10:33:13;;;;;;;7.22;4.20;;;;;;;;;;4151587;34;20099;-66
2022/05/09 10:35:53;;;;;;;7.37;3.25;;;;;;;;;;4152160;34;20092;-66
2022/05/09 10:38:40;;;;;;;12.15;5.60;;;;;;;;;;4151656;34;20528;-66
2022/05/09 10:41:13;;;;;;;13.13;6.70;;;;;;;;;;4152049;34;20095;-65
2022/05/09 10:43:47;;;;;;;8.90;5.57;;;;;;;;;;4151869;34;20149;-66
2022/05/09 10:46:14;;;;;;;8.93;5.10;;;;;;;;;;4164449;34;20169;-66
2022/05/09 10:48:45;;;;;;;14.40;5.68;;;;;;;;;;4164366;34;20545;-66
2022/05/09 10:51:56;;;;;;;5.87;4.00;;;;;;;;;;4164268;34;20114;-66
2022/05/09 10:54:53;;;;;;;12.73;5.05;;;;;;;;;;4164131;34;20122;-66
2022/05/09 10:57:41;;;;;;;14.35;6.20;;;;;;;;;;4164503;34;20083;-66
2022/05/09 11:00:11;;;;;;;9.35;4.75;;;;;;;;;;4164253;34;20138;-65
2022/05/09 11:02:40;;;;;;;14.43;4.12;;;;;;;;;;4164082;34;20107;-65
2022/05/09 11:05:07;;;;;;;4.85;2.90;;;;;;;;;;4151808;34;20213;-65
2022/05/09 11:08:02;;;;;;;4.78;3.35;;;;;;;;;;4164357;34;20169;-65
2022/05/09 11:10:43;;;;;;;7.93;3.67;;;;;;;;;;4164493;34;20107;-65
2022/05/09 11:13:50;;;;;;;6.22;3.65;;;;;;;;;;4164094;34;20127;-65
2022/05/09 11:16:30;;;;;;;8.40;3.20;;;;;;;;;;4114794;34;20132;-65
2022/05/09 11:19:32;;;;;;;9.10;2.72;;;;;;;;;;4151343;34;20618;-65
2022/05/09 11:22:17;;;;;;;9.93;4.50;;;;;;;;;;4164034;34;20588;-65
2022/05/09 11:24:49;;;;;;;7.10;3.40;;;;;;;;;;4163905;34;20105;-65
2022/05/09 11:27:41;;;;;;;5.43;3.05;;;;;;;;;;4163692;34;20591;-65
2022/05/09 11:30:35;;;;;;;8.85;3.10;;;;;;;;;;4151200;34;20223;-65
2022/05/09 11:33:22;;;;;;;7.60;2.80;;;;;;;;;;4164073;34;20111;-65
2022/05/09 11:35:54;;;;;;;4.68;2.85;;;;;;;;;;4163887;34;20086;-63
2022/05/09 11:38:29;;;;;;;8.20;2.50;;;;;;;;;;4151463;34;20102;-65
2022/05/09 11:41:17;;;;;;;4.68;2.47;;;;;;;;;;4151462;34;20094;-65
2022/05/09 11:43:55;;;;;;;4.30;2.50;;;;;;;;;;4151312;34;20122;-66
2022/05/09 11:46:24;;;;;;;5.80;2.87;;;;;;;;;;4163771;34;20189;-65
2022/05/09 11:48:49;;;;;;;6.40;3.03;;;;;;;;;;4163726;34;20664;-65
2022/05/09 11:51:48;;;;;;;7.95;3.90;;;;;;;;;;4164036;34;20123;-66
2022/05/09 11:54:25;;;;;;;4.68;3.35;;;;;;;;;;4151089;34;20232;-67
2022/05/09 11:56:54;;;;;;;4.80;2.10;;;;;;;;;;4151366;34;20613;-65
2022/05/09 11:59:28;;;;;;;4.53;2.42;;;;;;;;;;4163642;34;20130;-63
2022/05/09 12:02:05;;;;;;;4.85;2.58;;;;;;;;;;4151084;34;20119;-63
2022/05/09 12:04:34;;;;;;;6.90;2.50;;;;;;;;;;4151039;34;20099;-64
2022/05/09 12:07:01;;;;;;;4.18;2.20;;;;;;;;;;4163619;34;20099;-65
2022/05/09 12:10:00;;;;;;;3.55;2.45;;;;;;;;;;4163774;34;20215;-64
2022/05/09 12:13:04;;;;;;;6.57;2.28;;;;;;;;;;4163626;34;20112;-65
2022/05/09 12:15:33;;;;;;;4.57;2.12;;;;;;;;;;4128402;34;20456;-66
2022/05/09 12:18:00;;;;;;;4.70;2.72;;;;;;;;;;4163863;34;20766;-64
2022/05/09 12:20:29;;;;;;;6.93;3.10;;;;;;;;;;4163602;34;20584;-63
2022/05/09 12:23:12;;;;;;;4.90;2.30;;;;;;;;;;4163586;34;20118;-64
2022/05/09 12:25:47;;;;;;;6.97;2.30;;;;;;;;;;4151244;34;20195;-64
2022/05/09 12:28:48;;;;;;;3.67;2.50;;;;;;;;;;4164067;34;20087;-64
2022/05/09 12:31:29;;;;;;;4.05;2.40;;;;;;;;;;4141040;34;20199;-65
2022/05/09 12:33:56;;;;;;;3.85;2.03;;;;;;;;;;4164130;34;20122;-66
2022/05/09 12:36:26;;;;;;;5.47;2.87;;;;;;;;;;4166458;34;20531;-65
2022/05/09 12:39:02;;;;;;;3.15;2.40;;;;;;;;;;4169410;34;20149;-67
2022/05/09 12:41:53;;;;;;;3.03;2.00;;;;;;;;;;4167163;34;20087;-70
2022/05/09 12:44:25;;;;;;;6.90;2.80;;;;;;;;;;4154160;34;20654;-68
2022/05/09 12:47:09;;;;;;;8.10;3.35;;;;;;;;;;4164914;34;20106;-67
2022/05/09 12:49:48;;;;;;;8.48;3.33;;;;;;;;;;4150988;34;20110;-69
2022/05/09 12:52:21;;;;;;;2.92;1.83;;;;;;;;;;4163468;34;20199;-66
2022/05/09 12:57:34;;;;;;;10.38;3.17;;;;;;;;;;4152568;34;20127;-64
2022/05/09 13:00:11;;;;;;;8.18;2.40;;;;;;;;;;4163338;34;20127;-65
2022/05/09 13:02:37;;;;;;;8.07;2.62;;;;;;;;;;4150635;34;20106;-63
2022/05/09 13:05:04;;;;;;;3.00;2.42;;;;;;;;;;4163523;34;20103;-65
2022/05/09 13:07:31;;;;;;;5.65;2.45;;;;;;;;;;4163219;34;20118;-64
2022/05/09 13:09:58;;;;;;;6.85;2.58;;;;;;;;;;4150528;34;20527;-66
2022/05/09 13:12:37;;;;;;;4.25;2.67;;;;;;;;;;4163754;34;20223;-66
2022/05/09 13:15:06;;;;;;;9.35;3.85;;;;;;;;;;4150643;34;20126;-65
2022/05/09 13:17:50;;;;;;;9.80;3.30;;;;;;;;;;4162922;34;20141;-65
2022/05/09 13:20:19;;;;;;;4.62;2.00;;;;;;;;;;4163024;34;20234;-65
2022/05/09 13:22:48;;;;;;;10.60;2.40;;;;;;;;;;4150487;34;20206;-66
2022/05/09 13:25:46;;;;;;;9.07;3.62;;;;;;;;;;4150401;34;20106;-65
2022/05/09 13:28:15;;;;;;;5.12;3.03;;;;;;;;;;4150977;34;20118;-65
2022/05/09 13:30:47;;;;;;;6.25;3.20;;;;;;;;;;4165110;34;20118;-65
2022/05/09 13:33:19;;;;;;;10.35;3.50;;;;;;;;;;4165067;34;20207;-64
2022/05/09 13:35:53;;;;;;;4.93;3.90;;;;;;;;;;4165043;34;20643;-64
2022/05/09 13:38:23;;;;;;;5.20;3.35;;;;;;;;;;4165062;34;20534;-63
2022/05/09 13:40:51;;;;;;;8.45;4.10;;;;;;;;;;4164990;34;20129;-64
2022/05/09 13:43:26;;;;;;;4.95;2.60;;;;;;;;;;4164875;34;20095;-64
2022/05/09 13:46:03;;;;;;;7.28;2.60;;;;;;;;;;4152294;34;20091;-65
2022/05/09 13:48:30;;;;;;;4.05;2.45;;;;;;;;;;4165223;34;20107;-65
2022/05/09 13:50:57;;;;;;;5.90;3.25;;;;;;;;;;4164899;34;20118;-65
2022/05/09 13:53:27;;;;;;;12.90;3.10;;;;;;;;;;4152131;34;20135;-64
2022/05/09 13:55:57;;;;;;;12.82;4.35;;;;;;;;;;4152376;34;20126;-64
2022/05/09 13:58:25;;;;;;;6.37;3.47;;;;;;;;;;4152070;34;20192;-64
2022/05/09 14:00:52;;;;;;;4.97;3.05;;;;;;;;;;4164734;34;20115;-61
2022/05/09 14:03:21;;;;;;;8.20;3.90;;;;;;;;;;4164913;34;20131;-65
2022/05/09 14:05:48;;;;;;;4.35;3.17;;;;;;;;;;4152198;34;20123;-64
2022/05/09 14:08:14;;;;;;;8.60;3.17;;;;;;;;;;4152103;34;20469;-66
2022/05/09 14:10:43;;;;;;;7.80;3.60;;;;;;;;;;4164623;34;20212;-64
2022/05/09 14:13:27;;;;;;;8.93;3.40;;;;;;;;;;4164417;34;20099;-64
2022/05/09 14:15:57;;;;;;;11.00;3.67;;;;;;;;;;4164952;34;20131;-63
2022/05/09 14:18:29;;;;;;;4.70;2.97;;;;;;;;;;4152159;34;20516;-64
2022/05/09 14:21:00;;;;;;;4.85;3.00;;;;;;;;;;4164875;34;20151;-63
2022/05/09 14:23:26;;;;;;;6.97;4.12;;;;;;;;;;4164368;34;20151;-64
2022/05/09 14:31:52;;;;;;;8.03;3.33;;;;;;;;;;4153693;34;20107;-62
2022/05/09 14:34:21;;;;;;;5.68;3.15;;;;;;;;;;4164193;34;20746;-60
2022/05/09 14:36:47;;;;;;;6.35;2.70;;;;;;;;;;4164429;34;20129;-63
2022/05/09 14:39:25;;;;;;;6.68;2.92;;;;;;;;;;4164022;34;20676;-61
2022/05/09 14:42:03;;;;;;;7.43;3.15;;;;;;;;;;4164388;34;20127;-60
2022/05/09 14:44:31;;;;;;;9.35;3.00;;;;;;;;;;4164152;34;20127;-62
2022/05/09 14:47:09;;;;;;;5.82;3.15;;;;;;;;;;4164349;34;20606;-62
2022/05/09 14:49:53;;;;;;;6.87;3.42;;;;;;;;;;4164504;34;20118;-65
2022/05/09 14:52:30;;;;;;;6.97;4.25;;;;;;;;;;4151664;34;20190;-63
2022/05/09 14:57:50;;;;;;;8.68;4.05;;;;;;;;;;4153682;34;20113;-65
2022/05/09 15:00:19;;;;;;;12.10;4.28;;;;;;;;;;4164225;34;20119;-63
2022/05/09 15:02:57;;;;;;;7.75;3.87;;;;;;;;;;4164242;34;20114;-61
2022/05/09 15:05:23;;;;;;;15.05;4.85;;;;;;;;;;4162437;34;20471;-61
2022/05/09 15:07:53;;;;;;;9.13;3.30;;;;;;;;;;4162196;34;20110;-61
2022/05/09 15:10:21;;;;;;;14.93;3.35;;;;;;;;;;4162480;34;20543;-63
2022/05/09 15:12:47;;;;;;;9.48;4.32;;;;;;;;;;4150695;34;20103;-63
2022/05/09 15:15:13;;;;;;;10.98;4.47;;;;;;;;;;4164148;34;20216;-64
2022/05/09 15:17:39;;;;;;;12.40;4.43;;;;;;;;;;4164069;34;20130;-63
2022/05/09 15:20:06;;;;;;;6.90;3.75;;;;;;;;;;4163986;34;20107;-64
2022/05/09 15:22:32;;;;;;;9.07;4.25;;;;;;;;;;4164296;34;20143;-64
2022/05/09 15:24:58;;;;;;;9.45;4.25;;;;;;;;;;4151406;34;20142;-64
2022/05/09 15:27:26;;;;;;;9.00;4.20;;;;;;;;;;4163750;34;20119;-64
2022/05/09 15:29:53;;;;;;;6.20;3.75;;;;;;;;;;4163983;34;20110;-64
2022/05/09 15:32:19;;;;;;;10.10;4.03;;;;;;;;;;4151407;34;20621;-64
2022/05/09 15:34:45;;;;;;;7.12;4.32;;;;;;;;;;4163806;34;20102;-65
2022/05/09 15:37:11;;;;;;;6.57;4.28;;;;;;;;;;4163922;34;20092;-64
2022/05/09 15:39:38;;;;;;;7.45;4.43;;;;;;;;;;4163914;34;20145;-63
2022/05/09 15:42:16;;;;;;;8.20;4.40;;;;;;;;;;4163829;34;20191;-64
2022/05/09 15:44:42;;;;;;;16.12;6.70;;;;;;;;;;4151161;34;20090;-64
2022/05/09 15:47:12;;;;;;;8.68;5.57;;;;;;;;;;4163899;34;20561;-65
2022/05/09 15:49:38;;;;;;;13.45;4.30;;;;;;;;;;4163747;34;20546;-66
2022/05/09 15:52:05;;;;;;;11.18;5.55;;;;;;;;;;4163173;34;20103;-66
2022/05/09 15:54:31;;;;;;;11.65;4.43;;;;;;;;;;4163647;34;20187;-64